sensor_id;sensor_type;location;lat;lon;timestamp;pressure;altitude;pressure_sealevel;temperature;humidity
55347;BME280;41218;55.700;38.270;2022-08-03T00:04:57;99933.00;;;16.99;58.53
55347;BME280;41218;55.700;38.270;2022-08-03T00:09:57;99937.38;;;17.00;58.59
55347;BME280;41218;55.700;38.270;2022-08-03T00:14:58;99939.38;;;16.96;58.94
55347;BME280;41218;55.700;38.270;2022-08-03T00:19:58;99948.53;;;17.04;58.72
55347;BME280;41218;55.700;38.270;2022-08-03T00:30:10;99941.47;;;16.81;59.01
55347;BME280;41218;55.700;38.270;2022-08-03T00:35:11;99940.66;;;16.85;59.46
55347;BME280;41218;55.700;38.270;2022-08-03T00:40:12;99944.59;;;16.91;59.24
55347;BME280;41218;55.700;38.270;2022-08-03T00:45:13;99933.94;;;16.75;59.33
55347;BME280;41218;55.700;38.270;2022-08-03T00:50:14;99943.44;;;16.85;59.27
55347;BME280;41218;55.700;38.270;2022-08-03T00:55:17;99942.31;;;16.71;59.56
55347;BME280;41218;55.700;38.270;2022-08-03T01:00:22;99931.91;;;16.75;59.24
55347;BME280;41218;55.700;38.270;2022-08-03T01:05:23;99934.78;;;16.61;59.96
55347;BME280;41218;55.700;38.270;2022-08-03T01:10:35;99921.25;;;16.56;60.51
55347;BME280;41218;55.700;38.270;2022-08-03T01:16:11;99940.78;;;16.56;60.84
55347;BME280;41218;55.700;38.270;2022-08-03T01:21:22;99920.53;;;16.45;60.82
55347;BME280;41218;55.700;38.270;2022-08-03T01:26:27;99928.78;;;16.62;59.92
55347;BME280;41218;55.700;38.270;2022-08-03T01:31:52;99931.63;;;16.52;60.90
55347;BME280;41218;55.700;38.270;2022-08-03T01:36:58;99925.28;;;16.44;60.67
55347;BME280;41218;55.700;38.270;2022-08-03T01:42:03;99937.28;;;16.41;60.49
55347;BME280;41218;55.700;38.270;2022-08-03T01:47:06;99932.09;;;16.36;60.47
55347;BME280;41218;55.700;38.270;2022-08-03T01:52:07;99932.53;;;16.31;60.51
55347;BME280;41218;55.700;38.270;2022-08-03T01:57:09;99937.72;;;16.29;60.70
55347;BME280;41218;55.700;38.270;2022-08-03T02:02:12;99940.13;;;16.27;60.72
55347;BME280;41218;55.700;38.270;2022-08-03T02:07:14;99942.13;;;16.22;60.80
55347;BME280;41218;55.700;38.270;2022-08-03T02:12:16;99942.13;;;16.19;61.08
55347;BME280;41218;55.700;38.270;2022-08-03T02:17:18;99942.53;;;16.14;60.90
55347;BME280;41218;55.700;38.270;2022-08-03T02:22:20;99943.34;;;16.14;61.32
55347;BME280;41218;55.700;38.270;2022-08-03T02:27:25;99942.56;;;16.10;61.95
55347;BME280;41218;55.700;38.270;2022-08-03T02:48:19;99946.97;;;15.97;62.95
55347;BME280;41218;55.700;38.270;2022-08-03T02:53:23;99946.59;;;15.95;62.74
55347;BME280;41218;55.700;38.270;2022-08-03T02:58:24;99943.00;;;15.94;63.07
55347;BME280;41218;55.700;38.270;2022-08-03T03:03:25;99954.94;;;15.98;63.08
55347;BME280;41218;55.700;38.270;2022-08-03T03:08:26;99959.31;;;16.10;62.71
55347;BME280;41218;55.700;38.270;2022-08-03T03:13:29;99965.66;;;16.07;63.69
55347;BME280;41218;55.700;38.270;2022-08-03T03:18:32;99962.88;;;16.07;63.97
55347;BME280;41218;55.700;38.270;2022-08-03T03:23:36;99959.69;;;16.05;64.10
55347;BME280;41218;55.700;38.270;2022-08-03T03:28:37;99955.72;;;16.06;64.05
55347;BME280;41218;55.700;38.270;2022-08-03T03:33:38;99967.25;;;16.15;64.34
55347;BME280;41218;55.700;38.270;2022-08-03T03:38:39;99961.66;;;16.15;64.55
55347;BME280;41218;55.700;38.270;2022-08-03T03:43:40;99976.38;;;16.30;64.91
55347;BME280;41218;55.700;38.270;2022-08-03T03:48:41;99975.94;;;16.42;64.29
55347;BME280;41218;55.700;38.270;2022-08-03T03:53:58;99984.69;;;16.45;66.46
55347;BME280;41218;55.700;38.270;2022-08-03T03:58:59;99982.69;;;16.49;65.32
55347;BME280;41218;55.700;38.270;2022-08-03T04:04:00;99978.25;;;16.58;65.44
55347;BME280;41218;55.700;38.270;2022-08-03T04:09:20;99973.44;;;16.62;65.70
55347;BME280;41218;55.700;38.270;2022-08-03T04:14:47;99984.94;;;16.79;65.86
55347;BME280;41218;55.700;38.270;2022-08-03T04:19:51;99988.88;;;16.89;66.33
55347;BME280;41218;55.700;38.270;2022-08-03T04:25:00;99997.63;;;16.98;67.02
55347;BME280;41218;55.700;38.270;2022-08-03T04:30:04;99984.03;;;17.04;66.86
55347;BME280;41218;55.700;38.270;2022-08-03T04:35:06;99993.09;;;17.18;66.64
55347;BME280;41218;55.700;38.270;2022-08-03T04:40:13;100000.53;;;17.39;67.19
55347;BME280;41218;55.700;38.270;2022-08-03T04:45:15;100000.41;;;17.57;66.38
55347;BME280;41218;55.700;38.270;2022-08-03T04:50:16;99998.31;;;17.69;66.53
55347;BME280;41218;55.700;38.270;2022-08-03T04:55:30;100014.50;;;17.95;65.98
55347;BME280;41218;55.700;38.270;2022-08-03T05:00:31;100005.16;;;18.09;66.16
55347;BME280;41218;55.700;38.270;2022-08-03T05:05:32;100008.84;;;18.37;65.35
55347;BME280;41218;55.700;38.270;2022-08-03T05:10:32;100017.03;;;18.55;65.15
55347;BME280;41218;55.700;38.270;2022-08-03T05:15:33;100010.78;;;18.78;64.81
55347;BME280;41218;55.700;38.270;2022-08-03T05:20:35;100019.03;;;18.92;64.35
55347;BME280;41218;55.700;38.270;2022-08-03T05:25:35;100015.50;;;19.15;63.86
55347;BME280;41218;55.700;38.270;2022-08-03T05:30:36;100015.22;;;19.33;63.59
55347;BME280;41218;55.700;38.270;2022-08-03T05:35:37;100010.50;;;19.54;63.79
55347;BME280;41218;55.700;38.270;2022-08-03T05:40:38;100012.59;;;19.77;63.49
55347;BME280;41218;55.700;38.270;2022-08-03T05:45:39;100006.72;;;19.91;62.82
55347;BME280;41218;55.700;38.270;2022-08-03T05:50:39;100018.22;;;20.20;62.26
55347;BME280;41218;55.700;38.270;2022-08-03T05:55:40;100012.25;;;20.38;61.97
55347;BME280;41218;55.700;38.270;2022-08-03T06:00:41;100013.00;;;20.63;61.45
55347;BME280;41218;55.700;38.270;2022-08-03T06:05:41;100015.22;;;20.91;60.83
55347;BME280;41218;55.700;38.270;2022-08-03T06:10:42;100005.25;;;21.07;60.70
55347;BME280;41218;55.700;38.270;2022-08-03T06:15:42;99999.56;;;21.27;60.31
55347;BME280;41218;55.700;38.270;2022-08-03T06:20:43;99996.72;;;21.47;59.71
55347;BME280;41218;55.700;38.270;2022-08-03T06:25:43;100013.69;;;21.76;59.06
55347;BME280;41218;55.700;38.270;2022-08-03T06:30:44;100005.72;;;22.04;58.27
55347;BME280;41218;55.700;38.270;2022-08-03T06:35:45;100007.63;;;22.23;57.89
55347;BME280;41218;55.700;38.270;2022-08-03T06:40:46;100006.03;;;22.38;57.18
55347;BME280;41218;55.700;38.270;2022-08-03T06:45:46;100010.25;;;22.59;56.97
55347;BME280;41218;55.700;38.270;2022-08-03T06:50:47;100011.56;;;22.84;56.29
55347;BME280;41218;55.700;38.270;2022-08-03T06:55:48;100014.56;;;23.06;55.38
55347;BME280;41218;55.700;38.270;2022-08-03T07:00:48;100021.22;;;23.38;54.60
55347;BME280;41218;55.700;38.270;2022-08-03T07:05:49;100028.97;;;23.59;54.11
55347;BME280;41218;55.700;38.270;2022-08-03T07:10:50;100016.78;;;23.75;52.73
55347;BME280;41218;55.700;38.270;2022-08-03T07:15:51;100001.66;;;23.82;51.98
55347;BME280;41218;55.700;38.270;2022-08-03T07:20:51;100016.03;;;24.10;50.46
55347;BME280;41218;55.700;38.270;2022-08-03T07:25:52;100017.50;;;24.36;49.97
55347;BME280;41218;55.700;38.270;2022-08-03T07:30:52;100020.19;;;24.53;48.66
55347;BME280;41218;55.700;38.270;2022-08-03T07:35:53;100008.94;;;24.62;48.37
55347;BME280;41218;55.700;38.270;2022-08-03T07:40:54;100008.88;;;24.75;47.77
55347;BME280;41218;55.700;38.270;2022-08-03T07:45:54;100021.22;;;24.90;47.50
55347;BME280;41218;55.700;38.270;2022-08-03T07:50:55;100017.06;;;25.04;47.46
55347;BME280;41218;55.700;38.270;2022-08-03T07:55:55;99989.06;;;24.97;46.99
55347;BME280;41218;55.700;38.270;2022-08-03T08:00:56;100038.00;;;25.47;46.52
55347;BME280;41218;55.700;38.270;2022-08-03T08:05:57;100035.75;;;25.73;46.10
55347;BME280;41218;55.700;38.270;2022-08-03T08:10:57;100038.31;;;25.90;45.38
55347;BME280;41218;55.700;38.270;2022-08-03T08:15:58;100016.47;;;26.00;44.99
55347;BME280;41218;55.700;38.270;2022-08-03T08:20:59;100024.66;;;26.07;44.90
55347;BME280;41218;55.700;38.270;2022-08-03T08:26:00;100023.41;;;26.17;44.40
55347;BME280;41218;55.700;38.270;2022-08-03T08:31:01;100031.28;;;26.22;44.05
55347;BME280;41218;55.700;38.270;2022-08-03T08:36:02;100028.44;;;26.13;44.04
55347;BME280;41218;55.700;38.270;2022-08-03T08:41:03;100032.19;;;26.01;43.98
55347;BME280;41218;55.700;38.270;2022-08-03T08:46:10;100026.47;;;25.82;43.65
55347;BME280;41218;55.700;38.270;2022-08-03T09:03:16;100038.69;;;26.29;43.25
55347;BME280;41218;55.700;38.270;2022-08-03T09:08:17;100043.22;;;26.35;42.88
55347;BME280;41218;55.700;38.270;2022-08-03T09:13:18;100038.22;;;26.30;42.74
55347;BME280;41218;55.700;38.270;2022-08-03T09:18:28;100043.56;;;26.28;42.06
55347;BME280;41218;55.700;38.270;2022-08-03T09:23:43;100047.50;;;26.31;42.21
55347;BME280;41218;55.700;38.270;2022-08-03T09:28:45;100038.38;;;26.36;42.45
55347;BME280;41218;55.700;38.270;2022-08-03T09:33:46;100037.25;;;26.33;42.16
55347;BME280;41218;55.700;38.270;2022-08-03T09:39:03;100033.81;;;26.38;42.04
55347;BME280;41218;55.700;38.270;2022-08-03T09:44:07;100037.75;;;26.60;42.08
55347;BME280;41218;55.700;38.270;2022-08-03T09:49:10;100031.91;;;26.72;41.46
55347;BME280;41218;55.700;38.270;2022-08-03T10:00:09;100036.06;;;27.05;40.41
55347;BME280;41218;55.700;38.270;2022-08-03T10:05:12;100029.28;;;27.11;41.00
55347;BME280;41218;55.700;38.270;2022-08-03T10:10:14;100038.41;;;27.25;40.42
55347;BME280;41218;55.700;38.270;2022-08-03T10:15:14;100038.53;;;27.30;40.04
55347;BME280;41218;55.700;38.270;2022-08-03T10:20:15;100042.13;;;27.40;40.41
55347;BME280;41218;55.700;38.270;2022-08-03T10:25:16;100038.47;;;27.49;40.05
55347;BME280;41218;55.700;38.270;2022-08-03T10:30:17;100038.13;;;27.56;40.22
55347;BME280;41218;55.700;38.270;2022-08-03T10:35:19;100042.34;;;27.61;39.63
55347;BME280;41218;55.700;38.270;2022-08-03T10:40:21;100049.72;;;27.67;39.51
55347;BME280;41218;55.700;38.270;2022-08-03T10:45:26;100049.06;;;27.72;39.58
55347;BME280;41218;55.700;38.270;2022-08-03T10:50:27;100041.94;;;27.77;39.19
55347;BME280;41218;55.700;38.270;2022-08-03T10:55:39;100044.44;;;27.84;38.88
55347;BME280;41218;55.700;38.270;2022-08-03T11:00:58;100032.91;;;27.88;39.19
55347;BME280;41218;55.700;38.270;2022-08-03T11:06:16;100052.69;;;28.06;38.82
55347;BME280;41218;55.700;38.270;2022-08-03T11:16:21;100048.56;;;28.07;38.76
55347;BME280;41218;55.700;38.270;2022-08-03T11:38:06;100034.97;;;27.87;38.79
55347;BME280;41218;55.700;38.270;2022-08-03T11:48:32;100026.75;;;28.13;38.23
55347;BME280;41218;55.700;38.270;2022-08-03T11:53:33;100036.59;;;28.27;38.28
55347;BME280;41218;55.700;38.270;2022-08-03T11:58:34;100022.38;;;28.27;37.92
55347;BME280;41218;55.700;38.270;2022-08-03T12:03:35;100036.75;;;28.24;37.59
55347;BME280;41218;55.700;38.270;2022-08-03T12:08:35;100019.38;;;28.07;37.97
55347;BME280;41218;55.700;38.270;2022-08-03T12:18:37;100027.97;;;27.97;38.41
55347;BME280;41218;55.700;38.270;2022-08-03T12:23:38;100031.47;;;27.92;38.15
55347;BME280;41218;55.700;38.270;2022-08-03T12:28:46;100036.84;;;27.90;38.08
55347;BME280;41218;55.700;38.270;2022-08-03T12:34:00;100033.72;;;27.88;38.09
55347;BME280;41218;55.700;38.270;2022-08-03T12:39:07;100033.38;;;27.86;38.58
55347;BME280;41218;55.700;38.270;2022-08-03T12:44:08;100032.28;;;27.84;38.80
55347;BME280;41218;55.700;38.270;2022-08-03T12:49:13;100043.03;;;27.80;38.62
55347;BME280;41218;55.700;38.270;2022-08-03T13:05:44;100043.56;;;27.69;38.89
55347;BME280;41218;55.700;38.270;2022-08-03T13:10:44;100031.13;;;27.66;38.70
55347;BME280;41218;55.700;38.270;2022-08-03T13:15:45;100034.72;;;27.76;38.54
55347;BME280;41218;55.700;38.270;2022-08-03T13:20:48;100027.13;;;27.73;38.82
55347;BME280;41218;55.700;38.270;2022-08-03T13:25:48;100031.34;;;27.87;38.72
55347;BME280;41218;55.700;38.270;2022-08-03T13:30:49;100024.38;;;27.88;38.41
55347;BME280;41218;55.700;38.270;2022-08-03T13:35:50;100035.81;;;28.03;38.28
55347;BME280;41218;55.700;38.270;2022-08-03T13:40:51;100041.72;;;28.14;38.08
55347;BME280;41218;55.700;38.270;2022-08-03T13:45:52;100030.66;;;28.16;38.06
55347;BME280;41218;55.700;38.270;2022-08-03T13:50:53;100028.81;;;28.13;38.11
55347;BME280;41218;55.700;38.270;2022-08-03T13:55:53;100040.53;;;28.06;38.32
55347;BME280;41218;55.700;38.270;2022-08-03T14:00:54;100027.53;;;27.90;38.29
55347;BME280;41218;55.700;38.270;2022-08-03T14:05:54;100026.28;;;27.82;38.55
55347;BME280;41218;55.700;38.270;2022-08-03T14:10:55;100038.94;;;27.81;39.10
55347;BME280;41218;55.700;38.270;2022-08-03T14:15:56;100047.31;;;27.75;39.41
55347;BME280;41218;55.700;38.270;2022-08-03T14:21:09;100043.75;;;27.65;39.52
55347;BME280;41218;55.700;38.270;2022-08-03T14:26:09;100037.97;;;27.60;39.74
55347;BME280;41218;55.700;38.270;2022-08-03T14:31:11;100046.16;;;27.57;39.91
55347;BME280;41218;55.700;38.270;2022-08-03T14:36:11;100034.84;;;27.48;40.26
55347;BME280;41218;55.700;38.270;2022-08-03T14:41:12;100037.06;;;27.44;40.13
55347;BME280;41218;55.700;38.270;2022-08-03T14:46:13;100043.84;;;27.47;39.99
55347;BME280;41218;55.700;38.270;2022-08-03T14:51:13;100043.38;;;27.48;40.48
55347;BME280;41218;55.700;38.270;2022-08-03T14:56:14;100034.09;;;27.38;40.61
55347;BME280;41218;55.700;38.270;2022-08-03T15:06:46;100049.06;;;27.39;40.39
55347;BME280;41218;55.700;38.270;2022-08-03T15:11:47;100031.94;;;27.24;40.79
55347;BME280;41218;55.700;38.270;2022-08-03T15:16:47;100039.22;;;27.25;41.33
55347;BME280;41218;55.700;38.270;2022-08-03T15:21:48;100036.19;;;27.20;42.36
55347;BME280;41218;55.700;38.270;2022-08-03T15:26:50;100044.09;;;27.15;43.17
55347;BME280;41218;55.700;38.270;2022-08-03T15:31:51;100045.19;;;27.09;43.25
55347;BME280;41218;55.700;38.270;2022-08-03T15:36:53;100045.56;;;27.02;42.98
55347;BME280;41218;55.700;38.270;2022-08-03T15:41:54;100040.38;;;26.91;43.90
55347;BME280;41218;55.700;38.270;2022-08-03T15:46:55;100046.22;;;26.87;44.08
55347;BME280;41218;55.700;38.270;2022-08-03T15:51:55;100046.72;;;26.76;44.60
55347;BME280;41218;55.700;38.270;2022-08-03T15:56:56;100053.78;;;26.72;45.16
55347;BME280;41218;55.700;38.270;2022-08-03T16:01:56;100057.59;;;26.69;45.56
55347;BME280;41218;55.700;38.270;2022-08-03T16:06:57;100040.25;;;26.57;46.33
55347;BME280;41218;55.700;38.270;2022-08-03T16:11:57;100066.72;;;26.64;46.58
55347;BME280;41218;55.700;38.270;2022-08-03T16:16:58;100050.34;;;26.58;46.82
55347;BME280;41218;55.700;38.270;2022-08-03T16:21:59;100048.88;;;26.54;46.89
55347;BME280;41218;55.700;38.270;2022-08-03T16:26:59;100060.53;;;26.56;47.09
55347;BME280;41218;55.700;38.270;2022-08-03T16:32:00;100050.78;;;26.48;47.15
55347;BME280;41218;55.700;38.270;2022-08-03T16:37:06;100057.41;;;26.45;47.04
55347;BME280;41218;55.700;38.270;2022-08-03T16:42:07;100056.31;;;26.33;46.99
55347;BME280;41218;55.700;38.270;2022-08-03T16:47:08;100051.25;;;26.18;46.76
55347;BME280;41218;55.700;38.270;2022-08-03T16:52:08;100065.44;;;26.18;46.76
55347;BME280;41218;55.700;38.270;2022-08-03T16:57:09;100072.34;;;26.08;47.10
55347;BME280;41218;55.700;38.270;2022-08-03T17:02:19;100074.81;;;25.97;47.57
55347;BME280;41218;55.700;38.270;2022-08-03T17:07:20;100079.50;;;25.82;47.93
55347;BME280;41218;55.700;38.270;2022-08-03T17:12:21;100084.00;;;25.70;48.22
55347;BME280;41218;55.700;38.270;2022-08-03T17:17:44;100099.38;;;25.59;48.49
55347;BME280;41218;55.700;38.270;2022-08-03T17:22:55;100102.78;;;25.45;48.36
55347;BME280;41218;55.700;38.270;2022-08-03T17:28:01;100094.53;;;25.29;48.60
55347;BME280;41218;55.700;38.270;2022-08-03T17:33:02;100091.09;;;25.12;48.73
55347;BME280;41218;55.700;38.270;2022-08-03T17:38:03;100114.78;;;25.05;48.73
55347;BME280;41218;55.700;38.270;2022-08-03T17:43:03;100120.63;;;24.89;48.95
55347;BME280;41218;55.700;38.270;2022-08-03T17:48:05;100119.56;;;24.73;49.24
55347;BME280;41218;55.700;38.270;2022-08-03T17:53:08;100127.97;;;24.64;49.25
55347;BME280;41218;55.700;38.270;2022-08-03T17:59:00;100136.84;;;24.53;49.63
55347;BME280;41218;55.700;38.270;2022-08-03T18:04:02;100132.09;;;24.37;49.78
55347;BME280;41218;55.700;38.270;2022-08-03T18:09:04;100139.91;;;24.20;49.70
55347;BME280;41218;55.700;38.270;2022-08-03T18:19:20;100146.75;;;23.97;50.17
55347;BME280;41218;55.700;38.270;2022-08-03T18:24:23;100151.47;;;23.88;50.27
55347;BME280;41218;55.700;38.270;2022-08-03T18:29:24;100153.84;;;23.76;50.13
55347;BME280;41218;55.700;38.270;2022-08-03T18:34:25;100158.34;;;23.74;50.30
55347;BME280;41218;55.700;38.270;2022-08-03T18:39:27;100171.09;;;23.66;50.50
55347;BME280;41218;55.700;38.270;2022-08-03T18:44:28;100181.34;;;23.59;50.56
55347;BME280;41218;55.700;38.270;2022-08-03T18:55:26;100178.50;;;23.47;51.21
55347;BME280;41218;55.700;38.270;2022-08-03T19:00:18;100177.94;;;23.39;50.78
55347;BME280;41218;55.700;38.270;2022-08-03T19:05:22;100186.16;;;23.33;51.18
55347;BME280;41218;55.700;38.270;2022-08-03T19:10:25;100198.88;;;23.25;51.51
55347;BME280;41218;55.700;38.270;2022-08-03T19:15:28;100195.03;;;23.19;51.43
55347;BME280;41218;55.700;38.270;2022-08-03T19:20:30;100188.22;;;23.04;51.62
55347;BME280;41218;55.700;38.270;2022-08-03T19:25:36;100188.72;;;22.98;51.80
55347;BME280;41218;55.700;38.270;2022-08-03T19:30:38;100203.03;;;22.91;51.86
55347;BME280;41218;55.700;38.270;2022-08-03T19:35:49;100195.66;;;22.81;51.52
55347;BME280;41218;55.700;38.270;2022-08-03T19:40:49;100195.09;;;22.86;51.43
55347;BME280;41218;55.700;38.270;2022-08-03T19:45:52;100186.50;;;22.60;51.80
55347;BME280;41218;55.700;38.270;2022-08-03T19:50:56;100190.03;;;22.48;52.30
55347;BME280;41218;55.700;38.270;2022-08-03T19:56:03;100182.75;;;22.34;52.17
55347;BME280;41218;55.700;38.270;2022-08-03T20:01:03;100185.00;;;22.23;52.33
55347;BME280;41218;55.700;38.270;2022-08-03T20:06:04;100178.81;;;22.12;52.55
55347;BME280;41218;55.700;38.270;2022-08-03T20:11:07;100183.94;;;22.00;52.48
55347;BME280;41218;55.700;38.270;2022-08-03T20:16:08;100169.38;;;21.86;52.57
55347;BME280;41218;55.700;38.270;2022-08-03T20:21:12;100195.25;;;21.80;52.88
55347;BME280;41218;55.700;38.270;2022-08-03T20:26:15;100194.69;;;21.69;52.92
55347;BME280;41218;55.700;38.270;2022-08-03T20:31:19;100187.88;;;21.50;53.14
55347;BME280;41218;55.700;38.270;2022-08-03T20:36:20;100197.28;;;21.40;53.10
55347;BME280;41218;55.700;38.270;2022-08-03T20:41:20;100212.13;;;21.40;53.28
55347;BME280;41218;55.700;38.270;2022-08-03T20:46:21;100205.31;;;21.21;53.44
55347;BME280;41218;55.700;38.270;2022-08-03T20:51:22;100223.00;;;21.18;53.43
55347;BME280;41218;55.700;38.270;2022-08-03T20:56:23;100225.63;;;21.09;53.38
55347;BME280;41218;55.700;38.270;2022-08-03T21:01:25;100224.22;;;20.97;53.51
55347;BME280;41218;55.700;38.270;2022-08-03T21:06:33;100226.06;;;20.84;53.95
55347;BME280;41218;55.700;38.270;2022-08-03T21:11:39;100228.72;;;20.71;53.89
55347;BME280;41218;55.700;38.270;2022-08-03T21:27:42;100238.00;;;20.41;54.16
55347;BME280;41218;55.700;38.270;2022-08-03T21:32:44;100228.97;;;20.30;54.38
55347;BME280;41218;55.700;38.270;2022-08-03T21:37:45;100234.28;;;20.24;54.30
55347;BME280;41218;55.700;38.270;2022-08-03T21:42:46;100215.69;;;20.07;54.47
55347;BME280;41218;55.700;38.270;2022-08-03T21:47:52;100233.00;;;20.01;55.05
55347;BME280;41218;55.700;38.270;2022-08-03T21:53:06;100235.47;;;19.96;54.55
55347;BME280;41218;55.700;38.270;2022-08-03T21:58:12;100228.00;;;19.86;54.85
55347;BME280;41218;55.700;38.270;2022-08-03T22:03:26;100224.63;;;19.71;54.96
55347;BME280;41218;55.700;38.270;2022-08-03T22:08:27;100235.84;;;19.67;54.97
55347;BME280;41218;55.700;38.270;2022-08-03T22:13:28;100239.16;;;19.58;55.40
55347;BME280;41218;55.700;38.270;2022-08-03T22:18:29;100239.69;;;19.46;55.41
55347;BME280;41218;55.700;38.270;2022-08-03T22:23:30;100237.81;;;19.36;55.88
55347;BME280;41218;55.700;38.270;2022-08-03T22:28:30;100242.28;;;19.30;55.63
55347;BME280;41218;55.700;38.270;2022-08-03T22:33:33;100241.63;;;19.18;55.90
55347;BME280;41218;55.700;38.270;2022-08-03T22:38:34;100238.94;;;19.08;56.04
55347;BME280;41218;55.700;38.270;2022-08-03T22:43:35;100241.81;;;19.00;55.92
55347;BME280;41218;55.700;38.270;2022-08-03T22:48:37;100248.66;;;18.96;55.97
55347;BME280;41218;55.700;38.270;2022-08-03T22:53:38;100245.97;;;18.81;56.25
55347;BME280;41218;55.700;38.270;2022-08-03T22:58:39;100242.84;;;18.72;56.43
55347;BME280;41218;55.700;38.270;2022-08-03T23:03:41;100227.75;;;18.59;56.51
55347;BME280;41218;55.700;38.270;2022-08-03T23:08:44;100256.56;;;18.59;56.60
55347;BME280;41218;55.700;38.270;2022-08-03T23:13:48;100262.22;;;18.52;56.95
55347;BME280;41218;55.700;38.270;2022-08-03T23:18:51;100254.69;;;18.42;56.63
55347;BME280;41218;55.700;38.270;2022-08-03T23:23:52;100260.72;;;18.37;56.90
55347;BME280;41218;55.700;38.270;2022-08-03T23:28:53;100268.38;;;18.29;56.80
55347;BME280;41218;55.700;38.270;2022-08-03T23:33:56;100267.63;;;18.21;57.18
55347;BME280;41218;55.700;38.270;2022-08-03T23:39:17;100263.69;;;18.12;57.13
55347;BME280;41218;55.700;38.270;2022-08-03T23:44:19;100271.72;;;18.06;57.06
55347;BME280;41218;55.700;38.270;2022-08-03T23:49:21;100273.34;;;18.00;57.16
